Time;durP1;ratioP1;P1;durP2;ratioP2;P2;SDS_P1;SDS_P2;PMS_P1;PMS_P2;Temp;Humidity;BMP_temperature;BMP_pressure;BME280_temperature;BME280_humidity;BME280_pressure;Samples;Min_cycle;Max_cycle;Signal;HPM_P1;HPM_P2
2024/02/12 00:01:04;;;;;;;8.73;6.10;;;7.80;99.90;;;;;;5081517;28;20087;-65
2024/02/12 00:03:31;;;;;;;7.75;6.38;;;7.50;99.90;;;;;;5081333;28;20389;-65
2024/02/12 00:05:57;;;;;;;8.23;5.97;;;7.70;99.90;;;;;;5081287;28;20025;-65
2024/02/12 00:08:23;;;;;;;10.32;6.30;;;7.50;99.90;;;;;;5080056;28;20208;-64
2024/02/12 00:10:49;;;;;;;6.03;5.43;;;7.70;99.90;;;;;;5081321;28;20024;-64
2024/02/12 00:13:17;;;;;;;11.85;6.85;;;7.90;99.90;;;;;;5081478;28;20028;-64
2024/02/12 00:15:44;;;;;;;10.05;7.07;;;7.40;99.90;;;;;;5080462;28;20296;-64
2024/02/12 00:18:10;;;;;;;8.60;6.45;;;7.50;99.90;;;;;;5081273;28;20034;-64
2024/02/12 00:20:36;;;;;;;10.45;6.68;;;7.50;99.90;;;;;;5081319;28;20044;-64
2024/02/12 00:23:02;;;;;;;7.45;5.93;;;7.60;99.90;;;;;;5081104;28;20033;-64
2024/02/12 00:25:29;;;;;;;7.63;6.05;;;7.40;99.90;;;;;;5081089;28;20056;-64
2024/02/12 00:27:56;;;;;;;7.65;6.38;;;;;;;;;;5080971;28;20066;-63
2024/02/12 00:30:22;;;;;;;8.90;7.03;;;;;;;;;;5081117;28;20020;-64
2024/02/12 00:32:49;;;;;;;10.43;6.18;;;7.80;99.90;;;;;;5079480;28;20048;-64
2024/02/12 00:35:15;;;;;;;9.48;6.88;;;7.60;99.90;;;;;;5081192;28;20100;-64
2024/02/12 00:37:41;;;;;;;8.80;7.18;;;7.60;99.90;;;;;;5081234;28;20308;-64
2024/02/12 00:40:08;;;;;;;7.35;6.15;;;7.60;99.90;;;;;;5081243;28;20025;-64
2024/02/12 00:42:38;;;;;;;10.40;7.03;;;7.60;99.90;;;;;;5081031;28;20344;-64
2024/02/12 00:45:07;;;;;;;8.05;6.25;;;7.60;99.90;;;;;;5080978;28;20233;-64
2024/02/12 00:47:34;;;;;;;9.02;7.05;;;8.00;99.90;;;;;;5080513;28;20028;-64
2024/02/12 00:50:02;;;;;;;8.15;6.70;;;7.60;99.90;;;;;;5079775;28;20033;-64
2024/02/12 00:52:27;;;;;;;8.38;6.97;;;7.70;99.90;;;;;;5080889;28;20059;-64
2024/02/12 00:54:53;;;;;;;9.45;7.43;;;7.60;99.90;;;;;;5081033;28;20095;-64
2024/02/12 00:57:20;;;;;;;8.57;6.97;;;7.70;99.90;;;;;;5080799;28;20288;-64
2024/02/12 00:59:46;;;;;;;7.60;6.43;;;7.70;99.90;;;;;;5080731;28;20027;-64
2024/02/12 01:02:12;;;;;;;8.77;6.65;;;7.50;99.90;;;;;;5080712;28;20028;-64
2024/02/12 01:04:38;;;;;;;10.25;7.15;;;7.50;99.90;;;;;;5080710;28;20009;-64
2024/02/12 01:07:03;;;;;;;8.30;6.45;;;7.50;99.90;;;;;;5080278;28;20020;-64
2024/02/12 01:09:30;;;;;;;8.43;7.13;;;7.60;99.90;;;;;;5080371;28;20075;-64
2024/02/12 01:11:58;;;;;;;8.48;6.85;;;7.80;99.90;;;;;;5080670;28;20028;-64
2024/02/12 01:14:28;;;;;;;8.40;7.00;;;7.60;99.90;;;;;;5080331;28;20312;-64
2024/02/12 01:16:55;;;;;;;8.80;6.78;;;7.50;99.90;;;;;;5078227;28;20013;-64
2024/02/12 01:19:21;;;;;;;9.27;6.82;;;7.50;99.90;;;;;;5080609;28;20016;-64
2024/02/12 01:21:47;;;;;;;11.50;6.88;;;7.30;99.90;;;;;;5080433;28;20039;-64
2024/02/12 01:24:14;;;;;;;11.45;6.68;;;7.50;99.90;;;;;;5080264;28;20020;-64
2024/02/12 01:26:41;;;;;;;12.52;7.00;;;7.40;99.90;;;;;;5081911;28;20301;-64
2024/02/12 01:29:06;;;;;;;8.55;6.72;;;7.60;99.90;;;;;;5084125;28;20317;-64
2024/02/12 01:31:36;;;;;;;8.40;6.72;;;7.40;99.90;;;;;;5084372;28;20021;-64
2024/02/12 01:34:04;;;;;;;;;;;7.50;99.90;;;;;;5084228;28;20240;-65
2024/02/12 01:36:31;;;;;;;9.23;7.38;;;7.50;99.90;;;;;;5083682;28;19972;-63
2024/02/12 01:38:57;;;;;;;9.05;6.97;;;7.50;99.90;;;;;;5084267;28;20263;-64
2024/02/12 01:41:24;;;;;;;9.05;7.20;;;7.20;99.90;;;;;;5084506;28;20070;-66
2024/02/12 01:43:51;;;;;;;10.55;7.03;;;7.50;99.90;;;;;;5084148;28;20032;-67
2024/02/12 01:46:19;;;;;;;9.63;8.18;;;7.20;99.90;;;;;;5084385;28;20250;-67
2024/02/12 01:48:45;;;;;;;8.88;7.15;;;7.50;99.90;;;;;;5084204;28;20021;-67
2024/02/12 01:51:12;;;;;;;11.68;8.82;;;7.40;99.90;;;;;;5084278;28;20219;-66
2024/02/12 01:53:42;;;;;;;10.27;7.78;;;7.60;99.90;;;;;;5084369;28;20036;-67
2024/02/12 01:56:10;;;;;;;10.50;7.65;;;7.50;99.90;;;;;;5084212;28;20255;-67
2024/02/12 01:58:43;;;;;;;10.55;7.82;;;7.60;99.90;;;;;;5084196;28;20016;-67
2024/02/12 02:01:13;;;;;;;10.93;8.30;;;7.50;99.90;;;;;;5084239;28;20020;-67
2024/02/12 02:03:39;;;;;;;11.63;8.88;;;7.50;99.90;;;;;;5083996;28;20078;-67
2024/02/12 02:06:07;;;;;;;10.65;8.00;;;7.50;99.90;;;;;;5088843;28;20062;-67
2024/02/12 02:08:36;;;;;;;13.27;8.73;;;7.60;99.90;;;;;;5104413;28;20024;-67
2024/02/12 02:11:11;;;;;;;;;;;7.50;99.90;;;;;;5104564;28;20028;-67
2024/02/12 02:13:44;;;;;;;11.00;7.57;;;7.50;99.90;;;;;;5104284;28;19908;-67
2024/02/12 02:16:11;;;;;;;11.68;7.22;;;7.70;99.90;;;;;;5102799;28;20295;-67
2024/02/12 02:18:36;;;;;;;10.50;8.00;;;7.50;99.90;;;;;;5104151;28;20047;-67
2024/02/12 02:21:02;;;;;;;14.65;8.57;;;7.50;99.90;;;;;;5094407;28;20028;-67
2024/02/12 02:23:28;;;;;;;10.68;8.00;;;7.50;99.90;;;;;;5104057;28;20022;-67
2024/02/12 02:25:55;;;;;;;10.73;7.85;;;7.50;99.90;;;;;;5103919;28;20081;-67
2024/02/12 02:28:24;;;;;;;9.57;7.50;;;7.40;99.90;;;;;;5103650;28;20012;-67
2024/02/12 02:30:52;;;;;;;10.25;8.07;;;7.50;99.90;;;;;;5093971;28;20024;-67
2024/02/12 02:33:18;;;;;;;10.00;7.90;;;7.40;99.90;;;;;;5103543;28;20123;-67
2024/02/12 02:35:44;;;;;;;10.30;7.57;;;7.60;99.90;;;;;;5093956;28;20037;-67
2024/02/12 02:38:13;;;;;;;10.00;7.85;;;7.70;99.90;;;;;;5102732;28;20137;-65
2024/02/12 02:40:39;;;;;;;12.43;8.57;;;7.60;99.90;;;;;;5103677;28;20024;-66
2024/02/12 02:43:06;;;;;;;11.48;8.65;;;7.40;99.90;;;;;;5103362;28;20304;-66
2024/02/12 02:45:31;;;;;;;11.02;8.13;;;7.60;99.90;;;;;;5103492;28;20093;-68
2024/02/12 02:47:57;;;;;;;12.38;8.75;;;7.70;99.90;;;;;;5103255;28;20283;-67
2024/02/12 02:50:24;;;;;;;11.05;8.80;;;7.50;99.90;;;;;;5103224;28;20082;-66
2024/02/12 02:52:50;;;;;;;10.73;8.23;;;;;;;;;;5097980;28;20047;-67
2024/02/12 02:55:17;;;;;;;13.60;8.38;;;7.80;99.90;;;;;;5098908;28;20032;-64
2024/02/12 02:57:44;;;;;;;13.05;9.35;;;7.50;99.90;;;;;;5102997;28;20365;-65
2024/02/12 03:00:12;;;;;;;11.93;9.05;;;7.50;99.90;;;;;;5103011;28;20051;-64
2024/02/12 03:02:38;;;;;;;13.52;9.30;;;;;;;;;;5102908;28;20340;-65
2024/02/12 03:05:05;;;;;;;13.45;8.68;;;7.40;99.90;;;;;;5103413;28;20028;-64
2024/02/12 03:07:31;;;;;;;13.13;9.82;;;7.40;99.90;;;;;;5102832;28;20018;-65
2024/02/12 03:09:57;;;;;;;12.27;8.43;;;7.50;99.90;;;;;;5102779;28;20227;-65
2024/02/12 03:12:23;;;;;;;12.52;8.75;;;7.40;99.90;;;;;;5093320;28;20045;-65
2024/02/12 03:14:49;;;;;;;11.10;8.60;;;7.40;99.90;;;;;;5102733;28;20296;-65
2024/02/12 03:17:15;;;;;;;11.32;8.45;;;7.40;99.90;;;;;;5102594;28;20340;-65
2024/02/12 03:19:40;;;;;;;10.73;8.25;;;7.40;99.90;;;;;;5102544;28;20035;-65
2024/02/12 03:22:06;;;;;;;11.95;8.32;;;7.40;99.90;;;;;;5102375;28;20016;-65
2024/02/12 03:24:32;;;;;;;11.15;8.20;;;7.30;99.90;;;;;;5102633;28;20023;-65
2024/02/12 03:26:58;;;;;;;12.30;8.48;;;7.30;99.90;;;;;;5102743;28;20016;-65
2024/02/12 03:29:24;;;;;;;11.40;8.43;;;7.30;99.90;;;;;;5101294;28;20320;-65
2024/02/12 03:31:50;;;;;;;12.65;7.97;;;7.30;99.90;;;;;;5102615;28;20073;-65
2024/02/12 03:34:16;;;;;;;11.45;8.07;;;7.50;99.90;;;;;;5102115;28;20347;-67
2024/02/12 03:36:42;;;;;;;11.50;8.32;;;7.50;99.90;;;;;;5102291;28;20031;-67
2024/02/12 03:39:08;;;;;;;13.38;9.20;;;7.10;99.90;;;;;;5102138;28;20023;-67
2024/02/12 03:41:34;;;;;;;13.10;8.95;;;7.20;99.90;;;;;;5102201;28;20248;-67
2024/02/12 03:44:00;;;;;;;12.32;8.65;;;7.20;99.90;;;;;;5102070;28;20365;-67
2024/02/12 03:46:31;;;;;;;11.35;8.75;;;7.30;99.90;;;;;;5102257;28;20035;-66
2024/02/12 04:00:18;;;;;;;11.77;8.38;;;7.10;99.90;;;;;;5079508;28;20051;-66
2024/02/12 04:02:46;;;;;;;12.23;8.75;;;7.10;99.90;;;;;;5093418;28;20243;-66
2024/02/12 04:05:12;;;;;;;12.57;8.82;;;7.20;99.90;;;;;;5102071;28;20092;-66
2024/02/12 04:07:39;;;;;;;12.23;8.18;;;7.20;99.90;;;;;;5095005;28;20013;-66
2024/02/12 04:10:07;;;;;;;15.82;9.57;;;7.10;99.90;;;;;;5081949;28;20066;-66
2024/02/12 04:12:33;;;;;;;9.43;6.15;;;7.10;99.90;;;;;;5079186;28;20012;-66
2024/02/12 04:15:03;;;;;;;11.52;8.52;;;7.30;99.90;;;;;;5099470;28;20099;-64
2024/02/12 04:17:29;;;;;;;11.50;8.50;;;7.30;99.90;;;;;;5101461;28;20020;-64
2024/02/12 04:19:54;;;;;;;11.85;8.48;;;7.00;99.90;;;;;;5101550;28;20031;-64
2024/02/12 04:22:20;;;;;;;12.38;8.55;;;7.20;99.90;;;;;;5101354;28;20024;-64
2024/02/12 04:24:48;;;;;;;12.27;8.35;;;7.00;99.90;;;;;;5101503;28;20037;-64
2024/02/12 04:27:14;;;;;;;12.75;8.30;;;6.80;99.90;;;;;;5101485;28;20023;-64
2024/02/12 04:29:40;;;;;;;13.00;8.43;;;7.20;99.90;;;;;;5101393;28;20024;-64
2024/02/12 04:32:12;;;;;;;15.43;8.32;;;7.10;99.90;;;;;;5101164;28;20327;-64
2024/02/12 04:34:41;;;;;;;12.30;8.52;;;7.20;99.90;;;;;;5101397;28;20031;-64
2024/02/12 04:37:10;;;;;;;12.43;8.70;;;7.20;99.90;;;;;;5101311;28;20024;-64
2024/02/12 04:39:36;;;;;;;12.57;9.48;;;;;;;;;;5101376;28;20274;-65
2024/02/12 04:42:02;;;;;;;13.77;9.68;;;7.20;99.90;;;;;;5101130;28;20016;-64
2024/02/12 04:44:28;;;;;;;12.10;8.90;;;7.20;99.90;;;;;;5101290;28;20019;-65
2024/02/12 04:47:01;;;;;;;17.00;9.45;;;7.20;99.90;;;;;;5101343;28;20069;-65
2024/02/12 04:49:31;;;;;;;13.75;9.80;;;7.10;99.90;;;;;;5102149;28;20276;-66
2024/02/12 04:51:57;;;;;;;14.68;10.43;;;7.50;99.90;;;;;;5102653;28;20134;-65
2024/02/12 04:54:23;;;;;;;13.20;9.25;;;7.30;99.90;;;;;;5102101;28;20062;-66
2024/02/12 04:56:49;;;;;;;11.93;8.95;;;7.10;99.90;;;;;;5102547;28;20020;-66
2024/02/12 04:59:16;;;;;;;12.55;8.82;;;7.20;99.90;;;;;;5102060;28;20018;-66
2024/02/12 05:01:42;;;;;;;13.07;9.27;;;7.10;99.90;;;;;;5103947;28;20024;-66
2024/02/12 05:04:08;;;;;;;13.07;8.88;;;7.10;99.90;;;;;;5106280;28;20042;-66
2024/02/12 05:06:36;;;;;;;13.90;8.85;;;7.40;99.90;;;;;;5105951;28;20022;-67
2024/02/12 05:09:04;;;;;;;12.98;9.07;;;7.30;99.90;;;;;;5106224;28;20028;-66
2024/02/12 05:11:30;;;;;;;14.32;9.23;;;7.20;99.90;;;;;;5105641;28;20312;-67
2024/02/12 05:13:56;;;;;;;12.20;9.05;;;7.60;99.90;;;;;;5089740;28;20197;-64
2024/02/12 05:16:33;;;;;;;13.55;9.00;;;;;;;;;;5084654;28;20028;-64
2024/02/12 05:24:32;;;;;;;13.02;9.27;;;7.00;99.90;;;;;;5084496;28;20216;-65
2024/02/12 05:26:59;;;;;;;14.52;9.40;;;7.20;99.90;;;;;;5084392;28;20031;-66
2024/02/12 05:29:25;;;;;;;18.65;12.15;;;7.00;99.90;;;;;;5084362;28;20028;-66
2024/02/12 05:31:51;;;;;;;24.52;14.07;;;7.00;99.90;;;;;;5084214;28;20024;-65
2024/02/12 05:34:23;;;;;;;16.85;11.57;;;6.80;99.90;;;;;;5084179;28;20052;-64
2024/02/12 05:36:56;;;;;;;17.98;12.88;;;6.70;99.90;;;;;;5084331;28;20033;-66
2024/02/12 05:39:22;;;;;;;15.82;11.18;;;7.00;99.90;;;;;;5084423;28;20076;-65
2024/02/12 05:41:48;;;;;;;15.93;11.55;;;7.00;99.90;;;;;;5083951;28;20028;-65
2024/02/12 05:44:17;;;;;;;17.17;11.68;;;6.80;99.90;;;;;;5082503;28;20025;-65
2024/02/12 05:46:43;;;;;;;16.65;11.25;;;6.70;99.90;;;;;;5083223;28;20255;-64
2024/02/12 05:49:09;;;;;;;14.90;10.73;;;7.10;99.90;;;;;;5082024;28;20036;-64
2024/02/12 05:51:39;;;;;;;16.55;10.60;;;7.00;99.90;;;;;;5083357;28;20024;-66
2024/02/12 05:54:04;;;;;;;;;;;7.00;99.90;;;;;;5083542;28;20089;-65
2024/02/12 05:56:31;;;;;;;14.40;10.23;;;7.00;99.90;;;;;;5084045;28;20088;-64
2024/02/12 05:58:56;;;;;;;16.50;11.32;;;7.00;99.90;;;;;;5083837;28;20083;-64
2024/02/12 06:01:23;;;;;;;16.63;10.10;;;7.00;99.90;;;;;;5084040;28;20047;-64
2024/02/12 06:03:48;;;;;;;15.25;10.30;;;7.00;99.90;;;;;;5083866;28;20035;-63
2024/02/12 06:06:16;;;;;;;17.30;11.05;;;7.00;99.90;;;;;;5083868;28;20036;-63
2024/02/12 06:08:42;;;;;;;13.98;9.90;;;6.90;99.90;;;;;;5082393;28;20242;-63
2024/02/12 06:11:08;;;;;;;16.25;9.88;;;6.80;99.90;;;;;;5083578;28;20024;-63
2024/02/12 06:13:34;;;;;;;17.00;10.73;;;6.70;99.90;;;;;;5082080;28;20020;-63
2024/02/12 06:15:59;;;;;;;14.25;9.57;;;7.20;99.90;;;;;;5091755;28;20099;-63
2024/02/12 06:18:26;;;;;;;14.85;10.35;;;6.90;99.90;;;;;;5104718;28;20024;-65
2024/02/12 06:20:53;;;;;;;15.65;9.77;;;;;;;;;;5098209;28;20025;-64
2024/02/12 06:23:19;;;;;;;15.93;9.63;;;6.90;99.90;;;;;;5078363;28;20094;-64
2024/02/12 06:25:45;;;;;;;15.75;10.38;;;7.00;99.90;;;;;;5092885;28;20032;-64
2024/02/12 06:28:11;;;;;;;14.10;9.70;;;6.70;99.90;;;;;;5104616;28;20089;-64
2024/02/12 06:30:37;;;;;;;15.70;10.82;;;6.90;99.90;;;;;;5104486;28;20023;-63
2024/02/12 06:33:03;;;;;;;15.02;10.10;;;7.00;99.90;;;;;;5104437;28;20043;-69
2024/02/12 06:35:29;;;;;;;16.63;10.70;;;7.10;99.90;;;;;;5104400;28;20102;-63
2024/02/12 06:37:55;;;;;;;16.42;10.75;;;7.10;99.90;;;;;;5064220;28;20021;-64
2024/02/12 06:40:22;;;;;;;17.00;10.48;;;7.20;99.90;;;;;;5078771;28;20038;-64
2024/02/12 06:42:48;;;;;;;14.65;10.00;;;7.10;99.90;;;;;;5087284;28;20020;-65
2024/02/12 06:45:16;;;;;;;16.42;10.18;;;7.10;99.90;;;;;;5083855;28;20221;-64
2024/02/12 06:47:45;;;;;;;16.13;10.13;;;7.20;99.90;;;;;;5095309;28;20043;-64
2024/02/12 06:50:12;;;;;;;15.90;10.13;;;7.30;99.90;;;;;;5076841;28;20079;-64
2024/02/12 06:52:39;;;;;;;16.67;10.05;;;7.30;99.90;;;;;;5063633;28;20350;-64
2024/02/12 06:55:11;;;;;;;14.70;9.95;;;7.40;99.90;;;;;;5062692;28;20446;-64
2024/02/12 06:57:37;;;;;;;12.65;9.00;;;7.30;99.90;;;;;;5062612;28;20021;-64
2024/02/12 07:00:06;;;;;;;15.77;10.13;;;7.40;99.90;;;;;;5064059;28;20036;-64
2024/02/12 07:02:35;;;;;;;15.55;10.30;;;7.80;99.90;;;;;;5070292;28;20027;-64
2024/02/12 07:05:03;;;;;;;14.25;10.32;;;7.50;99.90;;;;;;5067731;28;20031;-63
2024/02/12 07:07:30;;;;;;;14.40;10.63;;;7.80;99.90;;;;;;5062528;28;20067;-63
2024/02/12 07:09:57;;;;;;;12.68;9.57;;;7.60;99.90;;;;;;5062677;28;20035;-64
2024/02/12 07:12:23;;;;;;;14.80;9.98;;;7.70;99.90;;;;;;5062868;28;20028;-63
2024/02/12 07:14:51;;;;;;;12.93;9.13;;;7.80;99.90;;;;;;5062540;28;20217;-63
2024/02/12 07:17:17;;;;;;;17.17;9.77;;;7.50;99.90;;;;;;5062612;28;20029;-65
2024/02/12 07:19:47;;;;;;;15.98;9.60;;;7.40;99.90;;;;;;5062405;28;20273;-63
2024/02/12 07:22:13;;;;;;;18.10;9.70;;;7.40;99.90;;;;;;5062500;28;20017;-63
2024/02/12 07:24:38;;;;;;;12.43;8.98;;;7.50;99.90;;;;;;5062039;28;20332;-63
2024/02/12 07:27:05;;;;;;;12.90;9.68;;;7.60;99.90;;;;;;5062478;28;20013;-63
2024/02/12 07:29:31;;;;;;;14.02;9.98;;;7.60;99.90;;;;;;5062283;28;20056;-64
2024/02/12 07:31:57;;;;;;;17.33;10.40;;;8.00;99.90;;;;;;5070220;28;20025;-64
2024/02/12 07:34:23;;;;;;;14.70;10.35;;;;;;;;;;5081393;28;20226;-64
2024/02/12 07:36:48;;;;;;;14.93;9.55;;;6.80;99.90;;;;;;5081696;28;20339;-64
2024/02/12 07:39:16;;;;;;;15.52;8.75;;;8.00;99.90;;;;;;5081721;28;20031;-63
2024/02/12 07:41:43;;;;;;;14.20;10.05;;;7.80;99.90;;;;;;5081537;28;20025;-64
2024/02/12 07:44:10;;;;;;;12.98;9.43;;;7.90;99.90;;;;;;5078910;28;20379;-64
2024/02/12 07:46:38;;;;;;;14.20;9.52;;;7.70;99.90;;;;;;5077558;28;20071;-63
2024/02/12 07:49:05;;;;;;;13.93;9.60;;;7.90;99.90;;;;;;5081655;28;20346;-63
2024/02/12 07:51:32;;;;;;;13.43;9.65;;;10.20;99.90;;;;;;5073618;28;20224;-63
2024/02/12 07:53:57;;;;;;;13.68;8.60;;;7.90;99.90;;;;;;5061815;28;20025;-66
2024/02/12 07:56:23;;;;;;;14.00;10.05;;;8.20;99.90;;;;;;5061045;28;20063;-64
2024/02/12 07:58:50;;;;;;;13.93;10.10;;;8.00;99.90;;;;;;5068781;28;20296;-63
2024/02/12 08:01:16;;;;;;;14.68;9.57;;;8.10;99.90;;;;;;5079677;28;20213;-63
2024/02/12 08:03:42;;;;;;;12.98;9.40;;;8.10;99.90;;;;;;5081759;28;20031;-63
2024/02/12 08:06:12;;;;;;;15.05;10.00;;;8.20;99.90;;;;;;5081465;28;20028;-63
2024/02/12 08:08:37;;;;;;;17.20;9.82;;;8.20;99.90;;;;;;5079575;28;20048;-63
2024/02/12 08:11:03;;;;;;;13.07;8.63;;;8.30;99.90;;;;;;5081304;28;20016;-64
2024/02/12 08:13:29;;;;;;;13.02;9.90;;;8.30;99.90;;;;;;5080661;28;20032;-63
2024/02/12 08:15:55;;;;;;;13.25;9.05;;;8.20;99.90;;;;;;5080538;28;20031;-64
2024/02/12 08:18:21;;;;;;;13.20;9.32;;;8.50;99.90;;;;;;5080032;28;20066;-63
2024/02/12 08:20:47;;;;;;;14.20;9.05;;;8.70;99.90;;;;;;5080411;28;20043;-63
2024/02/12 08:23:12;;;;;;;13.80;9.10;;;8.30;99.90;;;;;;5081152;28;20020;-63
2024/02/12 08:25:38;;;;;;;12.82;9.23;;;8.70;99.90;;;;;;5081265;28;20273;-63
2024/02/12 08:28:05;;;;;;;12.43;8.90;;;8.40;99.90;;;;;;5081074;28;20305;-63
2024/02/12 08:30:31;;;;;;;15.77;9.80;;;8.50;99.90;;;;;;5080866;28;20223;-63
2024/02/12 08:32:59;;;;;;;14.68;9.65;;;8.20;99.90;;;;;;5080753;28;20364;-63
2024/02/12 08:35:25;;;;;;;16.83;9.38;;;8.40;99.90;;;;;;5080222;28;20058;-63
2024/02/12 08:37:50;;;;;;;11.88;8.30;;;8.60;99.90;;;;;;5080563;28;20025;-64
2024/02/12 08:40:17;;;;;;;13.68;8.40;;;8.80;99.90;;;;;;5081032;28;20021;-63
2024/02/12 08:42:45;;;;;;;12.32;8.60;;;8.70;99.90;;;;;;5077675;28;20082;-63
2024/02/12 08:45:12;;;;;;;11.83;8.33;;;8.70;99.90;;;;;;5078852;28;20028;-64
2024/02/12 08:47:38;;;;;;;10.68;7.53;;;8.80;99.90;;;;;;5080846;28;20276;-65
2024/02/12 08:50:06;;;;;;;12.40;8.30;;;8.70;99.90;;;;;;5073773;28;20054;-63
2024/02/12 08:52:31;;;;;;;13.23;7.93;;;9.20;99.90;;;;;;5062701;28;20029;-64
2024/02/12 08:54:59;;;;;;;11.55;7.82;;;8.80;99.90;;;;;;5080812;28;20036;-63
2024/02/12 08:57:26;;;;;;;11.18;8.20;;;9.10;99.90;;;;;;5080546;28;20016;-63
2024/02/12 08:59:52;;;;;;;11.23;7.93;;;9.00;99.90;;;;;;5081208;28;20074;-64
2024/02/12 09:02:18;;;;;;;15.88;7.93;;;8.90;99.90;;;;;;5080616;28;20066;-64
2024/02/12 09:04:44;;;;;;;11.52;7.90;;;9.20;99.90;;;;;;5080666;28;20032;-63
2024/02/12 09:07:11;;;;;;;10.23;7.72;;;9.20;99.90;;;;;;5080851;28;20083;-64
2024/02/12 09:09:37;;;;;;;9.43;7.07;;;9.30;99.90;;;;;;5080920;28;20413;-64
2024/02/12 09:12:03;;;;;;;11.25;7.90;;;;;;;;;;5080613;28;20033;-63
2024/02/12 09:14:29;;;;;;;11.25;8.00;;;9.20;99.90;;;;;;5080593;28;20320;-63
2024/02/12 09:16:55;;;;;;;10.27;7.15;;;9.20;99.90;;;;;;5080771;28;20036;-63
2024/02/12 09:19:20;;;;;;;9.45;7.68;;;9.50;99.90;;;;;;5080722;28;20021;-63
2024/02/12 09:21:47;;;;;;;10.25;7.05;;;9.50;99.90;;;;;;5080636;28;20016;-63
2024/02/12 09:24:12;;;;;;;9.77;6.68;;;9.30;99.90;;;;;;5081121;28;20016;-63
2024/02/12 09:26:40;;;;;;;9.80;6.57;;;9.50;99.90;;;;;;5080763;28;20034;-63
2024/02/12 09:29:06;;;;;;;7.10;6.00;;;9.40;99.90;;;;;;5080583;28;20032;-64
2024/02/12 09:31:33;;;;;;;8.23;6.22;;;9.50;99.90;;;;;;5080350;28;20079;-63
2024/02/12 09:34:02;;;;;;;8.60;6.60;;;9.50;99.90;;;;;;5079631;28;20059;-63
2024/02/12 09:36:28;;;;;;;;;;;9.50;99.90;;;;;;5080815;28;20043;-63
2024/02/12 09:38:54;;;;;;;6.68;5.72;;;9.50;99.90;;;;;;5080491;28;19908;-63
2024/02/12 09:41:26;;;;;;;6.72;5.30;;;9.50;99.90;;;;;;5080534;28;20032;-63
2024/02/12 09:43:54;;;;;;;9.98;5.53;;;9.30;99.90;;;;;;5080733;28;20066;-63
2024/02/12 09:46:22;;;;;;;7.50;5.22;;;9.60;99.90;;;;;;5080664;28;20124;-63
2024/02/12 09:48:49;;;;;;;7.07;6.00;;;9.70;99.90;;;;;;5083903;28;20012;-63
2024/02/12 09:51:16;;;;;;;10.05;6.13;;;9.60;99.90;;;;;;5084328;28;20035;-63
2024/02/12 09:53:43;;;;;;;7.85;5.82;;;9.60;99.90;;;;;;5084166;28;20208;-63
2024/02/12 09:56:13;;;;;;;10.00;6.70;;;9.80;99.90;;;;;;5084118;28;20041;-63
2024/02/12 09:58:39;;;;;;;6.88;5.65;;;9.70;99.90;;;;;;5083936;28;20328;-64
2024/02/12 10:01:10;;;;;;;9.57;6.75;;;9.70;99.90;;;;;;5083955;28;20043;-63
2024/02/12 10:03:36;;;;;;;8.05;6.05;;;9.80;99.90;;;;;;5084150;28;20051;-64
2024/02/12 10:06:02;;;;;;;7.50;6.43;;;9.70;99.90;;;;;;5083785;28;20039;-64
2024/02/12 10:08:28;;;;;;;7.68;5.68;;;10.10;99.90;;;;;;5083996;28;20024;-64
2024/02/12 10:10:54;;;;;;;7.45;5.55;;;10.30;99.90;;;;;;5084079;28;20024;-64
2024/02/12 10:13:21;;;;;;;6.90;5.97;;;10.50;99.90;;;;;;5083687;28;20055;-63
2024/02/12 10:15:49;;;;;;;7.30;5.38;;;9.80;99.90;;;;;;5076384;28;20055;-64
2024/02/12 10:18:16;;;;;;;6.80;6.10;;;9.90;99.90;;;;;;5062352;28;20048;-64
2024/02/12 10:20:45;;;;;;;7.78;6.28;;;10.10;99.90;;;;;;5063656;28;20040;-63
2024/02/12 10:23:19;;;;;;;7.22;6.10;;;10.00;99.90;;;;;;5065519;28;20025;-63
2024/02/12 10:25:48;;;;;;;7.63;5.82;;;10.20;99.90;;;;;;5063733;28;20059;-64
2024/02/12 10:28:18;;;;;;;7.20;5.68;;;10.30;99.90;;;;;;5063696;28;20032;-64
2024/02/12 10:30:47;;;;;;;8.35;5.97;;;10.30;99.90;;;;;;5065115;28;20017;-63
2024/02/12 10:33:14;;;;;;;9.70;6.40;;;10.20;99.90;;;;;;5083315;28;20048;-64
2024/02/12 10:35:46;;;;;;;7.25;5.97;;;10.30;99.90;;;;;;5083248;28;20036;-64
2024/02/12 10:38:14;;;;;;;9.70;6.00;;;10.40;99.90;;;;;;5083431;28;20327;-63
2024/02/12 10:40:45;;;;;;;8.93;6.40;;;10.30;99.90;;;;;;5083176;28;20032;-63
2024/02/12 10:43:16;;;;;;;6.45;5.53;;;10.40;99.90;;;;;;5083257;28;20378;-64
2024/02/12 10:45:47;;;;;;;8.65;6.88;;;10.40;99.90;;;;;;5078096;28;20025;-64
2024/02/12 10:48:15;;;;;;;10.25;5.55;;;10.40;99.90;;;;;;5080921;28;20028;-64
2024/02/12 10:50:45;;;;;;;11.70;6.22;;;10.80;99.90;;;;;;5083306;28;20219;-64
2024/02/12 10:53:12;;;;;;;8.95;6.63;;;10.60;99.90;;;;;;5083227;28;20154;-64
2024/02/12 10:55:37;;;;;;;10.98;5.93;;;10.60;99.80;;;;;;5078362;28;20336;-63
2024/02/12 10:58:04;;;;;;;11.35;7.05;;;10.80;99.90;;;;;;5062795;28;20273;-64
2024/02/12 11:00:31;;;;;;;10.90;6.28;;;10.70;99.30;;;;;;5064236;28;20119;-63
2024/02/12 11:03:00;;;;;;;8.85;6.85;;;10.80;99.90;;;;;;5075579;28;20024;-63
2024/02/12 11:05:28;;;;;;;12.20;7.00;;;10.90;99.00;;;;;;5062283;28;20074;-64
2024/02/12 11:08:08;;;;;;;8.38;6.40;;;11.00;99.10;;;;;;5065016;28;20009;-64
2024/02/12 11:10:35;;;;;;;12.35;6.75;;;11.10;99.90;;;;;;5062343;28;20039;-64
2024/02/12 11:13:04;;;;;;;8.88;6.35;;;11.10;99.00;;;;;;5062532;28;20052;-65
2024/02/12 11:15:29;;;;;;;8.77;5.10;;;11.20;98.70;;;;;;5062532;28;20063;-64
2024/02/12 11:17:55;;;;;;;7.80;6.05;;;11.20;98.20;;;;;;5062044;28;20265;-64
2024/02/12 11:20:23;;;;;;;8.30;5.82;;;10.90;99.90;;;;;;5061641;28;20095;-64
2024/02/12 11:22:49;;;;;;;8.43;5.70;;;11.20;98.20;;;;;;5060808;28;20013;-64
2024/02/12 11:25:18;;;;;;;7.25;5.50;;;11.40;99.90;;;;;;5061425;28;20021;-64
2024/02/12 11:27:50;;;;;;;6.40;5.50;;;11.40;98.30;;;;;;5061954;28;20017;-64
2024/02/12 11:30:16;;;;;;;8.60;6.20;;;11.50;98.10;;;;;;5062313;28;20284;-63
2024/02/12 11:32:46;;;;;;;8.23;5.78;;;11.50;98.00;;;;;;5061908;28;20041;-63
2024/02/12 11:35:18;;;;;;;9.32;6.00;;;11.40;97.60;;;;;;5061821;28;20040;-63
2024/02/12 11:38:07;;;;;;;11.70;4.50;;;11.50;99.90;;;;;;5061965;28;20021;-63
2024/02/12 11:40:35;;;;;;;8.77;3.78;;;11.40;97.20;;;;;;5061802;28;20035;-63
2024/02/12 11:43:00;;;;;;;3.17;1.75;;;11.50;99.90;;;;;;5061820;28;20047;-65
2024/02/12 11:45:26;;;;;;;1.73;1.50;;;11.60;98.70;;;;;;5061973;28;20051;-64
2024/02/12 11:47:52;;;;;;;3.80;2.03;;;11.50;90.80;;;;;;5061680;28;20119;-62
2024/02/12 11:50:27;;;;;;;2.03;1.83;;;11.80;97.60;;;;;;5062083;28;20052;-63
2024/02/12 11:52:55;;;;;;;1.90;1.80;;;11.50;88.00;;;;;;5061906;28;20044;-63
2024/02/12 11:55:21;;;;;;;2.10;1.88;;;12.00;96.50;;;;;;5061620;28;20071;-64
2024/02/12 11:57:48;;;;;;;3.25;1.90;;;11.70;95.90;;;;;;5061450;28;20225;-63
2024/02/12 12:00:17;;;;;;;1.58;1.48;;;11.60;95.30;;;;;;5061378;28;20379;-63
2024/02/12 12:02:51;;;;;;;3.10;2.15;;;11.50;96.20;;;;;;5061470;28;20036;-64
2024/02/12 12:05:25;;;;;;;2.78;2.20;;;11.40;85.90;;;;;;5061466;28;20091;-64
2024/02/12 12:07:52;;;;;;;2.92;2.28;;;11.40;85.80;;;;;;5061294;28;20316;-64
2024/02/12 12:10:26;;;;;;;2.20;2.00;;;11.40;87.00;;;;;;5061110;28;20071;-64
2024/02/12 12:12:53;;;;;;;2.75;2.28;;;11.20;96.40;;;;;;5061276;28;20024;-64
2024/02/12 12:15:19;;;;;;;2.42;2.10;;;11.30;86.80;;;;;;5059884;28;20116;-64
2024/02/12 12:17:46;;;;;;;3.63;2.40;;;11.10;97.30;;;;;;5061318;28;20021;-64
2024/02/12 12:20:13;;;;;;;2.13;1.92;;;11.20;88.00;;;;;;5061343;28;20115;-64
2024/02/12 12:22:42;;;;;;;4.22;2.45;;;11.20;87.30;;;;;;5061333;28;20036;-64
2024/02/12 12:25:42;;;;;;;4.65;2.58;;;11.20;88.70;;;;;;5060997;28;20075;-64
2024/02/12 12:28:00;;;;;;;3.88;2.85;;;11.20;89.10;;;;;;5060795;28;20033;-63
2024/02/12 12:30:26;;;;;;;5.13;2.42;;;11.20;97.60;;;;;;5060986;28;20205;-64
2024/02/12 12:32:52;;;;;;;4.40;3.15;;;11.10;88.70;;;;;;5060847;28;20044;-65
2024/02/12 12:35:18;;;;;;;3.70;3.00;;;11.10;98.70;;;;;;5060798;28;20272;-63
2024/02/12 12:37:47;;;;;;;7.68;2.90;;;10.70;98.50;;;;;;5061168;28;20029;-65
2024/02/12 12:40:19;;;;;;;4.00;2.90;;;10.60;99.20;;;;;;5060803;28;20039;-63
2024/02/12 12:42:51;;;;;;;4.07;3.40;;;10.90;90.80;;;;;;5060963;28;20033;-63
2024/02/12 12:45:17;;;;;;;3.25;2.72;;;10.90;91.40;;;;;;5060637;28;20063;-65
2024/02/12 12:47:44;;;;;;;6.32;3.70;;;10.60;99.30;;;;;;5061036;28;20035;-64
2024/02/12 12:50:13;;;;;;;3.58;3.08;;;11.00;99.40;;;;;;5060582;28;20029;-63
2024/02/12 12:52:40;;;;;;;4.65;2.97;;;10.90;99.90;;;;;;5060744;28;20423;-63
2024/02/12 12:55:07;;;;;;;4.00;3.33;;;10.90;91.70;;;;;;5060618;28;20272;-63
2024/02/12 12:57:37;;;;;;;4.32;3.15;;;10.90;91.70;;;;;;5060860;28;20201;-64
2024/02/12 13:00:05;;;;;;;4.18;3.00;;;11.00;92.00;;;;;;5060510;28;20028;-64
2024/02/12 13:02:34;;;;;;;4.10;2.85;;;11.00;91.00;;;;;;5060806;28;20084;-63
2024/02/12 13:05:02;;;;;;;3.05;2.47;;;11.00;91.50;;;;;;5059359;28;20041;-63
2024/02/12 13:07:28;;;;;;;3.10;2.60;;;11.10;99.70;;;;;;5060572;28;20013;-63